Time;durP1;ratioP1;P1;durP2;ratioP2;P2;SDS_P1;SDS_P2;PMS_P1;PMS_P2;Temp;Humidity;BMP_temperature;BMP_pressure;BME280_temperature;BME280_humidity;BME280_pressure;Samples;Min_cycle;Max_cycle;Signal;HPM_P1;HPM_P2
2023/10/13 00:01:04;;;;;;;0.10;0.10;;;;;;;;;;4959133;28;20077;-85
2023/10/13 00:03:31;;;;;;;0.10;0.10;;;;;;;;;;4975084;28;20049;-86
2023/10/13 00:06:03;;;;;;;0.10;0.10;;;;;;;;;;4943253;28;20415;-86
2023/10/13 00:08:30;;;;;;;0.10;0.10;;;;;;;;;;4976030;28;20158;-86
2023/10/13 00:11:02;;;;;;;0.10;0.10;;;;;;;;;;4959158;28;20042;-86
2023/10/13 00:13:31;;;;;;;0.10;0.10;;;;;;;;;;4976288;28;20057;-85
2023/10/13 00:15:58;;;;;;;0.10;0.10;;;;;;;;;;4959424;28;20042;-86
2023/10/13 00:18:27;;;;;;;0.10;0.10;;;;;;;;;;4975265;28;20507;-85
2023/10/13 00:20:56;;;;;;;0.10;0.10;;;;;;;;;;4959387;28;20411;-86
2023/10/13 00:23:22;;;;;;;0.10;0.10;;;;;;;;;;4943555;28;20046;-86
2023/10/13 00:25:56;;;;;;;0.10;0.10;;;;;;;;;;4958834;28;20515;-86
2023/10/13 00:28:24;;;;;;;0.10;0.10;;;;;;;;;;4943962;28;20515;-86
2023/10/13 00:31:00;;;;;;;0.10;0.10;;;;;;;;;;4959154;28;20117;-87
2023/10/13 00:33:26;;;;;;;0.10;0.10;;;;;;;;;;4974889;28;20038;-86
2023/10/13 00:35:54;;;;;;;0.10;0.10;;;;;;;;;;4959131;28;20046;-86
2023/10/13 00:38:23;;;;;;;0.10;0.10;;;;;;;;;;4958898;28;20046;-86
2023/10/13 00:40:51;;;;;;;0.30;0.30;;;;;;;;;;4943626;28;20082;-86
2023/10/13 00:46:33;;;;;;;0.10;0.10;;;;;;;;;;4958641;28;20562;-86
2023/10/13 00:48:51;;;;;;;0.10;0.10;;;;;;;;;;4959171;28;20038;-86
2023/10/13 00:51:34;;;;;;;0.32;0.20;;;;;;;;;;4960093;28;20391;-86
2023/10/13 00:54:11;;;;;;;0.10;0.10;;;;;;;;;;4945205;28;20081;-86
2023/10/13 00:56:46;;;;;;;0.10;0.10;;;;;;;;;;4962669;28;20061;-86
2023/10/13 00:59:13;;;;;;;0.10;0.10;;;;;;;;;;4963108;28;20043;-86
2023/10/13 01:01:42;;;;;;;0.20;0.20;;;;;;;;;;4946885;28;20060;-86
2023/10/13 01:04:11;;;;;;;0.10;0.10;;;;;;;;;;4962376;28;20054;-86
2023/10/13 01:06:37;;;;;;;0.20;0.20;;;;;;;;;;4946445;28;20054;-86
2023/10/13 01:09:16;;;;;;;0.20;0.20;;;;;;;;;;4978231;28;20167;-86
2023/10/13 01:11:52;;;;;;;0.10;0.10;;;;;;;;;;4963497;28;20379;-85
2023/10/13 01:14:21;;;;;;;0.10;0.10;;;;;;;;;;4947557;28;20093;-86
2023/10/13 01:16:49;;;;;;;0.10;0.10;;;;;;;;;;4978051;28;20050;-86
2023/10/13 01:19:19;;;;;;;0.10;0.10;;;;;;;;;;4962058;28;20049;-86
2023/10/13 01:21:47;;;;;;;0.10;0.10;;;;;;;;;;4946630;28;20074;-86
2023/10/13 01:24:13;;;;;;;0.10;0.10;;;;;;;;;;4977708;28;20056;-86
2023/10/13 01:26:40;;;;;;;0.10;0.10;;;;;;;;;;4946115;28;20072;-85
2023/10/13 01:29:13;;;;;;;0.10;0.10;;;;;;;;;;4978287;28;20042;-86
2023/10/13 01:31:45;;;;;;;0.10;0.10;;;;;;;;;;4962824;28;20049;-86
2023/10/13 01:34:12;;;;;;;0.10;0.10;;;;;;;;;;4962557;28;20507;-86
2023/10/13 01:36:40;;;;;;;0.10;0.10;;;;;;;;;;4961582;28;20038;-86
2023/10/13 01:39:06;;;;;;;0.10;0.10;;;;;;;;;;4977728;28;20053;-85
2023/10/13 01:41:32;;;;;;;0.10;0.10;;;;;;;;;;4995164;28;20030;-86
2023/10/13 01:43:58;;;;;;;0.10;0.10;;;;;;;;;;4961589;28;20049;-85
2023/10/13 01:46:24;;;;;;;0.20;0.20;;;;;;;;;;4961594;28;20491;-85
2023/10/13 01:48:52;;;;;;;0.20;0.20;;;;;;;;;;4961752;28;20044;-86
2023/10/13 01:51:23;;;;;;;0.10;0.10;;;;;;;;;;4978041;28;20108;-86
2023/10/13 01:53:56;;;;;;;0.35;0.20;;;;;;;;;;4994916;28;20076;-86
2023/10/13 01:56:23;;;;;;;0.10;0.10;;;;;;;;;;4962809;28;20392;-86
2023/10/13 01:58:49;;;;;;;0.52;0.20;;;;;;;;;;4961296;28;20121;-85
2023/10/13 02:01:26;;;;;;;0.10;0.10;;;;;;;;;;4977332;28;20587;-85
2023/10/13 02:04:01;;;;;;;0.10;0.10;;;;;;;;;;4977045;28;20121;-85
2023/10/13 02:06:32;;;;;;;0.10;0.10;;;;;;;;;;4978251;28;20518;-86
2023/10/13 02:09:03;;;;;;;0.13;0.13;;;;;;;;;;4994654;28;20057;-87
2023/10/13 02:11:30;;;;;;;0.10;0.10;;;;;;;;;;4961890;28;20038;-85
2023/10/13 02:13:57;;;;;;;0.10;0.10;;;;;;;;;;4961120;28;20116;-85
2023/10/13 02:16:25;;;;;;;0.10;0.10;;;;;;;;;;4977039;28;20046;-85
2023/10/13 02:18:51;;;;;;;0.10;0.10;;;;;;;;;;4945623;28;20089;-86
2023/10/13 02:21:17;;;;;;;0.10;0.10;;;;;;;;;;4977214;28;20105;-86
2023/10/13 02:23:45;;;;;;;0.10;0.10;;;;;;;;;;4960826;28;20479;-85
2023/10/13 02:26:30;;;;;;;0.20;0.20;;;;;;;;;;4961155;28;20048;-85
2023/10/13 02:28:57;;;;;;;0.20;0.20;;;;;;;;;;4960693;28;20140;-86
2023/10/13 02:31:24;;;;;;;0.10;0.10;;;;;;;;;;4976742;28;20054;-86
2023/10/13 02:33:50;;;;;;;0.20;0.20;;;;;;;;;;4960739;28;20101;-85
2023/10/13 02:36:22;;;;;;;0.45;0.20;;;;;;;;;;4976499;28;20089;-85
2023/10/13 02:38:50;;;;;;;0.13;0.13;;;;;;;;;;4961269;28;20042;-85
2023/10/13 02:41:27;;;;;;;0.10;0.10;;;;;;;;;;4976384;28;20553;-85
2023/10/13 02:43:53;;;;;;;0.10;0.10;;;;;;;;;;4976559;28;20123;-85
2023/10/13 02:46:21;;;;;;;0.10;0.10;;;;;;;;;;4960558;28;20038;-86
2023/10/13 02:48:52;;;;;;;0.10;0.10;;;;;;;;;;4960363;28;20049;-85
2023/10/13 02:51:19;;;;;;;0.45;0.45;;;;;;;;;;4976519;28;20053;-85
2023/10/13 02:53:48;;;;;;;0.20;0.20;;;;;;;;;;4960440;28;20080;-85
2023/10/13 02:56:20;;;;;;;0.25;0.25;;;;;;;;;;4960326;28;20089;-86
2023/10/13 02:58:53;;;;;;;0.10;0.10;;;;;;;;;;4976306;28;20496;-86
2023/10/13 03:01:19;;;;;;;0.38;0.30;;;;;;;;;;4961105;28;20046;-86
2023/10/13 03:03:51;;;;;;;0.10;0.10;;;;;;;;;;4960006;28;20439;-86
2023/10/13 03:06:19;;;;;;;0.10;0.10;;;;;;;;;;4977033;28;20046;-86
2023/10/13 03:08:45;;;;;;;0.10;0.10;;;;;;;;;;4959794;28;20042;-85
2023/10/13 03:11:11;;;;;;;0.10;0.10;;;;;;;;;;4975958;28;20515;-86
2023/10/13 03:13:37;;;;;;;0.10;0.10;;;;;;;;;;4959896;28;20061;-86
2023/10/13 03:16:15;;;;;;;0.45;0.45;;;;;;;;;;4959822;28;20035;-86
2023/10/13 03:18:51;;;;;;;0.10;0.10;;;;;;;;;;4958913;28;20037;-86
2023/10/13 03:21:28;;;;;;;0.10;0.10;;;;;;;;;;4961157;28;20142;-87
2023/10/13 03:23:54;;;;;;;0.10;0.10;;;;;;;;;;4961574;28;20050;-86
2023/10/13 03:26:20;;;;;;;0.10;0.10;;;;;;;;;;4975697;28;20043;-86
2023/10/13 03:28:52;;;;;;;0.10;0.10;;;;;;;;;;4975717;28;20042;-86
2023/10/13 03:31:19;;;;;;;0.10;0.10;;;;;;;;;;4975576;28;20042;-86
2023/10/13 03:33:46;;;;;;;0.10;0.10;;;;;;;;;;4959622;28;20038;-85
2023/10/13 03:36:35;;;;;;;0.10;0.10;;;;;;;;;;4943822;28;20121;-86
2023/10/13 03:38:59;;;;;;;0.10;0.10;;;;;;;;;;4975590;28;20049;-86
2023/10/13 03:41:30;;;;;;;0.10;0.10;;;;;;;;;;4959797;28;20042;-85
2023/10/13 03:44:08;;;;;;;0.10;0.10;;;;;;;;;;4959298;28;20514;-86
2023/10/13 03:46:36;;;;;;;0.10;0.10;;;;;;;;;;4959391;28;20074;-86
2023/10/13 03:49:06;;;;;;;0.10;0.10;;;;;;;;;;4960011;28;20050;-86
2023/10/13 03:51:33;;;;;;;0.30;0.30;;;;;;;;;;4959432;28;20510;-87
2023/10/13 03:53:59;;;;;;;0.10;0.10;;;;;;;;;;4943881;28;20455;-87
2023/10/13 03:56:26;;;;;;;0.50;0.20;;;;;;;;;;4975209;28;20144;-86
2023/10/13 03:58:53;;;;;;;0.10;0.10;;;;;;;;;;4975348;28;20082;-86
2023/10/13 04:01:24;;;;;;;0.10;0.10;;;;;;;;;;4943393;28;20054;-87
2023/10/13 04:03:57;;;;;;;0.10;0.10;;;;;;;;;;4960156;28;20129;-86
2023/10/13 04:17:22;;;;;;;0.15;0.15;;;;;;;;;;4974897;28;20057;-87
2023/10/13 04:25:35;;;;;;;0.10;0.10;;;;;;;;;;4992265;28;20061;-86
2023/10/13 04:34:02;;;;;;;0.10;0.10;;;;;;;;;;4996405;28;20082;-87
2023/10/13 04:38:57;;;;;;;0.10;0.10;;;;;;;;;;4964305;28;20046;-86
2023/10/13 04:41:37;;;;;;;0.10;0.10;;;;;;;;;;4963055;28;20050;-87
2023/10/13 04:47:08;;;;;;;0.25;0.25;;;;;;;;;;4909571;29;20071;-87
2023/10/13 05:51:43;;;;;;;0.20;0.20;;;;;;;;;;4962391;28;20050;-86
2023/10/13 06:29:35;;;;;;;0.10;0.10;;;;;;;;;;4963252;28;20046;-86
2023/10/13 06:32:01;;;;;;;0.10;0.10;;;;;;;;;;4976726;28;20184;-86
2023/10/13 06:34:47;;;;;;;0.10;0.10;;;;;;;;;;4976567;28;20042;-85
2023/10/13 06:37:22;;;;;;;0.10;0.10;;;;;;;;;;4994431;28;20113;-85
2023/10/13 06:40:07;;;;;;;0.20;0.20;;;;;;;;;;4962113;28;20415;-86
2023/10/13 06:42:42;;;;;;;0.10;0.10;;;;;;;;;;4976612;28;20047;-87
2023/10/13 06:45:08;;;;;;;0.10;0.10;;;;;;;;;;4976331;28;20050;-86
2023/10/13 06:47:42;;;;;;;0.20;0.20;;;;;;;;;;4976474;28;20061;-87
2023/10/13 06:50:15;;;;;;;0.10;0.10;;;;;;;;;;4945207;28;20053;-85
2023/10/13 06:52:44;;;;;;;0.10;0.10;;;;;;;;;;4976525;28;20172;-87
2023/10/13 06:55:27;;;;;;;0.10;0.10;;;;;;;;;;4960618;28;20054;-86
2023/10/13 06:57:59;;;;;;;0.10;0.10;;;;;;;;;;4976310;28;20054;-87
2023/10/13 07:00:52;;;;;;;0.10;0.10;;;;;;;;;;4945067;28;20042;-87
2023/10/13 07:03:18;;;;;;;0.10;0.10;;;;;;;;;;4946205;28;20038;-85
2023/10/13 07:05:47;;;;;;;0.10;0.10;;;;;;;;;;4975804;28;20058;-86
2023/10/13 07:08:14;;;;;;;0.65;0.20;;;;;;;;;;4960264;28;20174;-86
2023/10/13 07:10:51;;;;;;;0.20;0.20;;;;;;;;;;4959946;28;20089;-86
2023/10/13 07:13:19;;;;;;;0.10;0.10;;;;;;;;;;4976041;28;20042;-87
2023/10/13 07:15:46;;;;;;;0.10;0.10;;;;;;;;;;4959860;28;20086;-88
2023/10/13 07:18:17;;;;;;;0.10;0.10;;;;;;;;;;4959873;28;20521;-87
2023/10/13 07:20:46;;;;;;;0.10;0.10;;;;;;;;;;4944225;28;20129;-89
2023/10/13 07:23:17;;;;;;;0.15;0.15;;;;;;;;;;4975872;28;20038;-90
2023/10/13 07:25:44;;;;;;;0.10;0.10;;;;;;;;;;4960450;28;20530;-86
2023/10/13 07:28:10;;;;;;;0.10;0.10;;;;;;;;;;4943706;28;20045;-86
2023/10/13 07:30:42;;;;;;;0.10;0.10;;;;;;;;;;4959878;28;20482;-87
2023/10/13 07:33:13;;;;;;;0.20;0.20;;;;;;;;;;4960438;28;20491;-86
2023/10/13 07:35:39;;;;;;;0.10;0.10;;;;;;;;;;4943914;28;20042;-88
2023/10/13 07:38:07;;;;;;;0.20;0.20;;;;;;;;;;4958969;28;20053;-87
2023/10/13 07:43:08;;;;;;;0.20;0.20;;;;;;;;;;4975473;28;20498;-86
2023/10/13 07:45:36;;;;;;;0.17;0.17;;;;;;;;;;4958969;28;20050;-89
2023/10/13 07:48:20;;;;;;;0.10;0.10;;;;;;;;;;4959666;28;20034;-86
2023/10/13 07:51:18;;;;;;;0.15;0.15;;;;;;;;;;4956984;28;20046;-86
2023/10/13 07:53:44;;;;;;;0.10;0.10;;;;;;;;;;4958911;28;20057;-86
2023/10/13 07:56:17;;;;;;;0.10;0.10;;;;;;;;;;4958618;28;20052;-86
2023/10/13 07:58:52;;;;;;;0.10;0.10;;;;;;;;;;4940229;28;20130;-87
2023/10/13 08:01:21;;;;;;;0.13;0.13;;;;;;;;;;4936044;28;20052;-86
2023/10/13 08:03:49;;;;;;;0.10;0.10;;;;;;;;;;4982124;28;20042;-86
2023/10/13 08:08:43;;;;;;;0.10;0.10;;;;;;;;;;4945640;28;20050;-86
2023/10/13 08:11:26;;;;;;;0.10;0.10;;;;;;;;;;4959093;28;20125;-87
2023/10/13 08:13:59;;;;;;;0.32;0.32;;;;;;;;;;4977099;28;20038;-88
2023/10/13 08:19:16;;;;;;;0.20;0.20;;;;;;;;;;4942372;28;20039;-88
2023/10/13 08:21:51;;;;;;;0.10;0.10;;;;;;;;;;4924251;28;20035;-87
2023/10/13 08:24:28;;;;;;;0.10;0.10;;;;;;;;;;4943487;28;20077;-86
2023/10/13 08:26:57;;;;;;;0.10;0.10;;;;;;;;;;4939661;28;20510;-87
2023/10/13 08:35:00;;;;;;;0.10;0.10;;;;;;;;;;4958454;28;20047;-87
2023/10/13 08:37:32;;;;;;;0.10;0.10;;;;;;;;;;4955639;28;20381;-87
2023/10/13 08:43:08;;;;;;;0.28;0.28;;;;;;;;;;4956322;28;20091;-89
2023/10/13 08:50:47;;;;;;;0.10;0.10;;;;;;;;;;4941488;28;20054;-87
2023/10/13 08:53:26;;;;;;;0.20;0.20;;;;;;;;;;4972808;28;20392;-86
2023/10/13 08:56:14;;;;;;;0.15;0.15;;;;;;;;;;4925342;28;20043;-86
2023/10/13 09:01:35;;;;;;;0.38;0.38;;;;;;;;;;4941588;28;20095;-86
2023/10/13 09:04:47;;;;;;;0.38;0.38;;;;;;;;;;4924961;28;20098;-86
2023/10/13 09:12:35;;;;;;;0.30;0.30;;;;;;;;;;4972859;28;20117;-87
2023/10/13 09:17:52;;;;;;;0.10;0.10;;;;;;;;;;4960915;28;20043;-87
2023/10/13 09:23:07;;;;;;;0.20;0.20;;;;;;;;;;4979256;28;20129;-88
2023/10/13 09:25:35;;;;;;;0.10;0.10;;;;;;;;;;4948190;28;20042;-88
2023/10/13 09:28:02;;;;;;;0.38;0.38;;;;;;;;;;4977861;28;20039;-91
2023/10/13 09:30:31;;;;;;;0.32;0.30;;;;;;;;;;4946014;28;20046;-88
2023/10/13 09:33:04;;;;;;;0.10;0.10;;;;;;;;;;4961483;28;20599;-88
2023/10/13 09:35:33;;;;;;;0.20;0.20;;;;;;;;;;4961379;28;20463;-88
2023/10/13 09:38:02;;;;;;;0.10;0.10;;;;;;;;;;4961329;28;20054;-87
2023/10/13 09:43:05;;;;;;;0.20;0.20;;;;;;;;;;4968184;28;20129;-87
2023/10/13 09:45:43;;;;;;;0.23;0.23;;;;;;;;;;4942082;28;20503;-88
2023/10/13 09:48:21;;;;;;;0.25;0.25;;;;;;;;;;4928484;28;20429;-87
2023/10/13 09:50:48;;;;;;;1.48;1.38;;;;;;;;;;4927987;28;20494;-87
2023/10/13 09:53:14;;;;;;;0.10;0.10;;;;;;;;;;4957999;28;20057;-87
2023/10/13 09:56:11;;;;;;;0.10;0.10;;;;;;;;;;4926257;28;20407;-86
2023/10/13 09:58:37;;;;;;;0.30;0.30;;;;;;;;;;4937012;28;20081;-86
2023/10/13 10:01:20;;;;;;;0.20;0.20;;;;;;;;;;4941884;28;20082;-88
2023/10/13 10:06:38;;;;;;;0.20;0.20;;;;;;;;;;4976898;28;20053;-88
2023/10/13 10:09:11;;;;;;;0.50;0.50;;;;;;;;;;4941636;28;20133;-86
2023/10/13 10:11:46;;;;;;;0.20;0.20;;;;;;;;;;4933731;28;20599;-87
2023/10/13 10:14:37;;;;;;;0.10;0.10;;;;;;;;;;4949213;28;20106;-86
2023/10/13 10:17:09;;;;;;;0.22;0.22;;;;;;;;;;4949998;28;20050;-86
2023/10/13 10:19:54;;;;;;;0.10;0.10;;;;;;;;;;4957341;28;20043;-86
2023/10/13 10:22:35;;;;;;;0.20;0.20;;;;;;;;;;4936554;28;20069;-86
2023/10/13 10:25:22;;;;;;;0.30;0.30;;;;;;;;;;4944932;28;20051;-87
2023/10/13 10:27:56;;;;;;;0.40;0.40;;;;;;;;;;4947351;28;20391;-87
2023/10/13 10:30:28;;;;;;;0.88;0.35;;;;;;;;;;4976428;28;20313;-87
2023/10/13 10:32:59;;;;;;;0.32;0.32;;;;;;;;;;4960801;28;20395;-87
2023/10/13 10:35:29;;;;;;;0.10;0.10;;;;;;;;;;4976604;28;20124;-84
2023/10/13 10:38:03;;;;;;;0.20;0.20;;;;;;;;;;4975314;28;20046;-86
2023/10/13 10:40:47;;;;;;;0.20;0.20;;;;;;;;;;4961087;28;20046;-87
2023/10/13 10:43:17;;;;;;;0.15;0.15;;;;;;;;;;4971484;28;20535;-86
2023/10/13 10:45:46;;;;;;;0.10;0.10;;;;;;;;;;4994062;28;20201;-88
2023/10/13 10:48:20;;;;;;;0.20;0.20;;;;;;;;;;4973524;28;20042;-86
2023/10/13 10:50:53;;;;;;;0.20;0.20;;;;;;;;;;4943049;28;20078;-86
2023/10/13 10:53:22;;;;;;;0.20;0.20;;;;;;;;;;4949063;28;20076;-86
2023/10/13 10:55:48;;;;;;;0.10;0.10;;;;;;;;;;4925636;28;20042;-86
2023/10/13 10:58:29;;;;;;;0.47;0.47;;;;;;;;;;4940932;28;20145;-86
2023/10/13 11:01:10;;;;;;;0.20;0.20;;;;;;;;;;4956740;28;20050;-86
2023/10/13 11:03:37;;;;;;;0.20;0.20;;;;;;;;;;4946975;28;20100;-87
2023/10/13 11:06:04;;;;;;;0.10;0.10;;;;;;;;;;4975813;28;20092;-86
2023/10/13 11:08:37;;;;;;;0.10;0.10;;;;;;;;;;4975685;28;20047;-86
2023/10/13 11:11:05;;;;;;;0.20;0.20;;;;;;;;;;4976192;28;20447;-87
2023/10/13 11:13:47;;;;;;;0.32;0.32;;;;;;;;;;4976500;28;20061;-86
2023/10/13 11:16:23;;;;;;;0.10;0.10;;;;;;;;;;4959876;28;20118;-87
2023/10/13 11:18:59;;;;;;;0.10;0.10;;;;;;;;;;4976468;28;20252;-86
2023/10/13 11:21:30;;;;;;;0.47;0.47;;;;;;;;;;4960320;28;20457;-86
2023/10/13 11:23:57;;;;;;;2.20;1.17;;;;;;;;;;4944153;28;20046;-87
2023/10/13 11:26:33;;;;;;;0.20;0.20;;;;;;;;;;4960157;28;20306;-85
2023/10/13 11:28:59;;;;;;;0.20;0.20;;;;;;;;;;4959978;28;20136;-84
2023/10/13 11:31:25;;;;;;;0.10;0.10;;;;;;;;;;4960106;28;20095;-86
2023/10/13 11:33:55;;;;;;;0.10;0.10;;;;;;;;;;4960073;28;20426;-86
2023/10/13 11:36:24;;;;;;;0.10;0.10;;;;;;;;;;4976043;28;20068;-86
2023/10/13 11:38:51;;;;;;;0.10;0.10;;;;;;;;;;4959149;28;20149;-86
2023/10/13 11:41:21;;;;;;;0.20;0.20;;;;;;;;;;4959899;28;20038;-86
2023/10/13 11:51:39;;;;;;;0.10;0.10;;;;;;;;;;4960447;28;20097;-87
2023/10/13 11:54:05;;;;;;;0.20;0.20;;;;;;;;;;4975569;28;20518;-88
2023/10/13 11:56:31;;;;;;;0.30;0.30;;;;;;;;;;4959743;28;20038;-89
2023/10/13 11:59:05;;;;;;;0.10;0.10;;;;;;;;;;4956027;28;20134;-88
2023/10/13 12:12:18;;;;;;;0.38;0.38;;;;;;;;;;4976022;28;20383;-87
2023/10/13 12:14:52;;;;;;;0.20;0.20;;;;;;;;;;4935348;28;20039;-87
2023/10/13 12:17:25;;;;;;;0.40;0.40;;;;;;;;;;4953281;28;20042;-87
2023/10/13 12:19:58;;;;;;;0.32;0.32;;;;;;;;;;4935838;28;20752;-88
2023/10/13 12:22:28;;;;;;;0.20;0.20;;;;;;;;;;4937610;28;20049;-87
2023/10/13 12:24:57;;;;;;;2.15;0.60;;;;;;;;;;4954035;28;20047;-87
2023/10/13 12:27:26;;;;;;;0.10;0.10;;;;;;;;;;4955524;28;20057;-87
2023/10/13 12:29:53;;;;;;;0.20;0.20;;;;;;;;;;4939677;28;20050;-87
2023/10/13 12:32:24;;;;;;;0.20;0.20;;;;;;;;;;4939694;28;20043;-87
2023/10/13 12:49:04;;;;;;;0.10;0.10;;;;;;;;;;4974509;28;20129;-88
2023/10/13 12:57:02;;;;;;;0.10;0.10;;;;;;;;;;4908996;29;20052;-87
2023/10/13 12:59:28;;;;;;;0.30;0.30;;;;;;;;;;4965895;28;20055;-88
2023/10/13 13:01:54;;;;;;;0.10;0.10;;;;;;;;;;4962281;28;20497;-88
2023/10/13 13:04:21;;;;;;;0.20;0.20;;;;;;;;;;4945436;28;20089;-87
2023/10/13 13:06:47;;;;;;;0.20;0.20;;;;;;;;;;4962406;28;20045;-87
2023/10/13 13:09:13;;;;;;;0.45;0.45;;;;;;;;;;4962152;28;20074;-88
2023/10/13 13:11:42;;;;;;;0.75;0.50;;;;;;;;;;4946268;28;20041;-87
2023/10/13 13:14:08;;;;;;;0.20;0.20;;;;;;;;;;4962077;28;20038;-87
2023/10/13 13:16:34;;;;;;;0.45;0.45;;;;;;;;;;4977987;28;20046;-86
2023/10/13 13:19:09;;;;;;;0.20;0.20;;;;;;;;;;4978011;28;20483;-86
2023/10/13 13:21:36;;;;;;;0.20;0.20;;;;;;;;;;4963125;28;20042;-86
2023/10/13 13:24:04;;;;;;;0.55;0.52;;;;;;;;;;4961785;28;20048;-86
2023/10/13 13:26:31;;;;;;;0.10;0.10;;;;;;;;;;4962627;28;20101;-86
2023/10/13 13:28:56;;;;;;;0.20;0.20;;;;;;;;;;4946575;28;20514;-86
2023/10/13 13:31:26;;;;;;;0.10;0.10;;;;;;;;;;4961834;28;20038;-87
2023/10/13 13:33:52;;;;;;;0.20;0.20;;;;;;;;;;4946473;28;20039;-87
2023/10/13 13:36:19;;;;;;;0.30;0.30;;;;;;;;;;4961961;28;20046;-89
2023/10/13 13:38:54;;;;;;;0.30;0.30;;;;;;;;;;4961955;28;20049;-88
2023/10/13 13:41:21;;;;;;;0.20;0.20;;;;;;;;;;4979258;28;20042;-86
2023/10/13 13:43:50;;;;;;;0.10;0.10;;;;;;;;;;4977879;28;20050;-89
2023/10/13 13:46:40;;;;;;;0.80;0.75;;;;;;;;;;4961744;28;20043;-88
2023/10/13 13:49:07;;;;;;;0.43;0.20;;;;;;;;;;4946575;28;20046;-88
2023/10/13 13:51:33;;;;;;;0.20;0.20;;;;;;;;;;4977635;28;20070;-87
2023/10/13 13:53:59;;;;;;;0.10;0.10;;;;;;;;;;4977508;28;20562;-87
2023/10/13 13:56:27;;;;;;;0.10;0.10;;;;;;;;;;4961466;28;20050;-88
2023/10/13 13:58:53;;;;;;;0.20;0.20;;;;;;;;;;4961876;28;20518;-88
2023/10/13 14:01:25;;;;;;;0.17;0.17;;;;;;;;;;4977411;28;20694;-87
2023/10/13 14:03:51;;;;;;;0.35;0.35;;;;;;;;;;4945775;28;20042;-88
2023/10/13 14:06:24;;;;;;;0.50;0.50;;;;;;;;;;4961078;28;20487;-87
2023/10/13 14:08:57;;;;;;;0.20;0.20;;;;;;;;;;4961168;28;20038;-88
2023/10/13 14:14:04;;;;;;;0.10;0.10;;;;;;;;;;4979163;28;20124;-87
2023/10/13 14:16:33;;;;;;;0.40;0.40;;;;;;;;;;4945331;28;20042;-87
2023/10/13 14:19:01;;;;;;;0.40;0.40;;;;;;;;;;4994507;28;20089;-88
2023/10/13 14:21:27;;;;;;;0.20;0.20;;;;;;;;;;4961399;28;20038;-88
2023/10/13 14:23:53;;;;;;;0.22;0.22;;;;;;;;;;4976815;28;20038;-88
2023/10/13 14:26:21;;;;;;;0.28;0.28;;;;;;;;;;4976750;28;20105;-88
2023/10/13 14:29:00;;;;;;;0.10;0.10;;;;;;;;;;4945003;28;20042;-88
2023/10/13 14:31:26;;;;;;;0.20;0.20;;;;;;;;;;4962591;28;20042;-88
2023/10/13 14:33:53;;;;;;;0.10;0.10;;;;;;;;;;4976724;28;20065;-88
2023/10/13 14:36:19;;;;;;;0.20;0.20;;;;;;;;;;4944820;28;20050;-88
2023/10/13 14:38:49;;;;;;;0.10;0.10;;;;;;;;;;4976549;28;20042;-88
2023/10/13 14:41:16;;;;;;;0.63;0.47;;;;;;;;;;4976601;28;20050;-88
2023/10/13 14:43:47;;;;;;;0.40;0.40;;;;;;;;;;4960714;28;20061;-88
2023/10/13 14:46:13;;;;;;;0.47;0.47;;;;;;;;;;4976291;28;20046;-88
2023/10/13 14:48:39;;;;;;;0.10;0.10;;;;;;;;;;4960793;28;20043;-88
2023/10/13 14:51:09;;;;;;;0.22;0.22;;;;;;;;;;4976599;28;20093;-88
2023/10/13 14:53:35;;;;;;;0.20;0.20;;;;;;;;;;4976366;28;20049;-87
2023/10/13 14:56:05;;;;;;;0.20;0.20;;;;;;;;;;4976658;28;20047;-88
2023/10/13 14:58:31;;;;;;;0.20;0.20;;;;;;;;;;4960190;28;20049;-86
2023/10/13 15:00:58;;;;;;;0.47;0.40;;;;;;;;;;4976225;28;20046;-88
2023/10/13 15:03:24;;;;;;;0.50;0.50;;;;;;;;;;4944369;28;20603;-88
2023/10/13 15:05:50;;;;;;;0.10;0.10;;;;;;;;;;4976213;28;20064;-88
2023/10/13 15:08:18;;;;;;;0.10;0.10;;;;;;;;;;4944411;28;20046;-88
2023/10/13 15:10:44;;;;;;;0.25;0.25;;;;;;;;;;4960330;28;20053;-88
2023/10/13 15:13:10;;;;;;;0.25;0.25;;;;;;;;;;4959522;28;20046;-87
2023/10/13 15:15:36;;;;;;;0.20;0.20;;;;;;;;;;4959746;28;20046;-87
2023/10/13 15:18:03;;;;;;;0.50;0.50;;;;;;;;;;4976367;28;20448;-87
2023/10/13 15:20:29;;;;;;;0.20;0.20;;;;;;;;;;4993495;28;20052;-87
2023/10/13 15:22:59;;;;;;;0.20;0.20;;;;;;;;;;4959573;28;20470;-86
2023/10/13 15:25:28;;;;;;;0.20;0.20;;;;;;;;;;4993297;28;20050;-86
2023/10/13 15:28:02;;;;;;;0.40;0.30;;;;;;;;;;4975757;28;20310;-87
2023/10/13 15:30:43;;;;;;;0.30;0.30;;;;;;;;;;4960321;28;20096;-87
2023/10/13 15:33:09;;;;;;;0.20;0.20;;;;;;;;;;4975960;28;20085;-87
2023/10/13 15:35:38;;;;;;;0.68;0.32;;;;;;;;;;4975642;28;20079;-87
2023/10/13 15:38:06;;;;;;;0.10;0.10;;;;;;;;;;4975769;28;20053;-87
2023/10/13 15:40:32;;;;;;;0.20;0.20;;;;;;;;;;4959905;28;20542;-87
2023/10/13 15:42:59;;;;;;;0.20;0.20;;;;;;;;;;4959944;28;20130;-87
2023/10/13 15:45:32;;;;;;;0.20;0.20;;;;;;;;;;4975379;28;20054;-87
2023/10/13 15:47:58;;;;;;;0.43;0.43;;;;;;;;;;4960497;28;20518;-88
2023/10/13 15:50:24;;;;;;;0.75;0.73;;;;;;;;;;4943579;28;20043;-87
2023/10/13 15:52:50;;;;;;;0.20;0.20;;;;;;;;;;4959359;28;20502;-88
2023/10/13 15:55:19;;;;;;;0.98;0.55;;;;;;;;;;4975341;28;20058;-87
2023/10/13 15:57:52;;;;;;;0.20;0.20;;;;;;;;;;4960025;28;20126;-87
2023/10/13 16:00:25;;;;;;;0.35;0.35;;;;;;;;;;4959375;28;20081;-87
2023/10/13 16:02:54;;;;;;;0.30;0.30;;;;;;;;;;4944185;28;20077;-88
2023/10/13 16:05:22;;;;;;;0.13;0.13;;;;;;;;;;4959048;28;20376;-88
2023/10/13 16:07:50;;;;;;;0.47;0.47;;;;;;;;;;4975378;28;20088;-88
2023/10/13 16:10:16;;;;;;;0.25;0.22;;;;;;;;;;4943476;28;20042;-87
2023/10/13 16:12:45;;;;;;;0.57;0.57;;;;;;;;;;4975230;28;20042;-88
2023/10/13 16:15:13;;;;;;;0.20;0.20;;;;;;;;;;4975291;28;20050;-87
2023/10/13 16:17:43;;;;;;;0.20;0.20;;;;;;;;;;4943631;28;20583;-87
2023/10/13 16:20:15;;;;;;;0.20;0.20;;;;;;;;;;4958982;28;20096;-87
2023/10/13 16:22:43;;;;;;;0.20;0.20;;;;;;;;;;4975169;28;20043;-88
2023/10/13 16:25:11;;;;;;;0.10;0.10;;;;;;;;;;4944003;28;20042;-88
2023/10/13 16:27:39;;;;;;;0.20;0.20;;;;;;;;;;4947478;28;20133;-89
2023/10/13 16:30:09;;;;;;;0.10;0.10;;;;;;;;;;4947679;28;20444;-87
2023/10/13 16:32:35;;;;;;;0.95;0.95;;;;;;;;;;4947521;28;20046;-88
2023/10/13 16:35:02;;;;;;;0.30;0.20;;;;;;;;;;4962861;28;20049;-88
2023/10/13 16:37:30;;;;;;;0.35;0.35;;;;;;;;;;4963058;28;20128;-87
2023/10/13 16:40:04;;;;;;;0.10;0.10;;;;;;;;;;4947493;28;20061;-88
2023/10/13 16:42:33;;;;;;;0.15;0.15;;;;;;;;;;4962800;28;20200;-88
2023/10/13 16:45:14;;;;;;;0.40;0.40;;;;;;;;;;4962996;28;20046;-88
2023/10/13 16:47:42;;;;;;;0.10;0.10;;;;;;;;;;4962680;28;20038;-88
2023/10/13 16:50:08;;;;;;;0.80;0.28;;;;;;;;;;4947098;28;20046;-89
2023/10/13 16:52:34;;;;;;;0.10;0.10;;;;;;;;;;4962680;28;20038;-88
2023/10/13 16:55:00;;;;;;;0.10;0.10;;;;;;;;;;4962497;28;20038;-88
2023/10/13 16:57:26;;;;;;;1.30;0.55;;;;;;;;;;4946640;28;20145;-88
2023/10/13 16:59:52;;;;;;;0.20;0.20;;;;;;;;;;4978780;28;20109;-88
2023/10/13 17:02:18;;;;;;;0.20;0.20;;;;;;;;;;4962843;28;20046;-88
2023/10/13 17:04:44;;;;;;;0.40;0.40;;;;;;;;;;4978064;28;20077;-88
2023/10/13 17:07:13;;;;;;;0.10;0.10;;;;;;;;;;4962406;28;20047;-87
2023/10/13 17:09:39;;;;;;;0.15;0.15;;;;;;;;;;4962853;28;20042;-88
2023/10/13 17:12:06;;;;;;;0.10;0.10;;;;;;;;;;4962677;28;20395;-88
2023/10/13 17:14:32;;;;;;;0.10;0.10;;;;;;;;;;4978442;28;20046;-87
2023/10/13 17:16:58;;;;;;;0.25;0.25;;;;;;;;;;4978182;28;20622;-88
2023/10/13 17:19:24;;;;;;;0.20;0.20;;;;;;;;;;4978221;28;20105;-87
2023/10/13 17:21:50;;;;;;;0.10;0.10;;;;;;;;;;4978348;28;20054;-87
2023/10/13 17:24:17;;;;;;;0.35;0.30;;;;;;;;;;4961930;28;20038;-88
2023/10/13 17:26:43;;;;;;;0.35;0.35;;;;;;;;;;4961889;28;20042;-88
2023/10/13 17:29:09;;;;;;;0.75;0.38;;;;;;;;;;4978125;28;20038;-87
2023/10/13 17:31:36;;;;;;;0.10;0.10;;;;;;;;;;4961781;28;20045;-87
2023/10/13 17:34:02;;;;;;;0.10;0.10;;;;;;;;;;4961840;28;20333;-88
2023/10/13 17:36:29;;;;;;;0.20;0.20;;;;;;;;;;4977243;28;20065;-88
2023/10/13 17:38:55;;;;;;;1.52;0.70;;;;;;;;;;4961823;28;20459;-88
2023/10/13 17:41:23;;;;;;;0.40;0.35;;;;;;;;;;4961733;28;20045;-87
2023/10/13 17:43:49;;;;;;;0.20;0.20;;;;;;;;;;4945857;28;20046;-88
2023/10/13 17:46:15;;;;;;;0.20;0.20;;;;;;;;;;4961358;28;20054;-87
2023/10/13 17:48:41;;;;;;;0.30;0.30;;;;;;;;;;4945856;28;20046;-88
2023/10/13 17:51:10;;;;;;;0.10;0.10;;;;;;;;;;4945536;28;20046;-88
2023/10/13 17:53:39;;;;;;;0.10;0.10;;;;;;;;;;4977426;28;20073;-88
2023/10/13 17:56:09;;;;;;;0.10;0.10;;;;;;;;;;4961316;28;20550;-88
2023/10/13 17:58:35;;;;;;;0.20;0.20;;;;;;;;;;4977358;28;20046;-88
2023/10/13 18:01:06;;;;;;;0.20;0.20;;;;;;;;;;4961682;28;20062;-88
2023/10/13 18:03:33;;;;;;;1.25;0.32;;;;;;;;;;4977598;28;20403;-88
2023/10/13 18:06:00;;;;;;;0.50;0.50;;;;;;;;;;4960863;28;20062;-88
2023/10/13 18:08:27;;;;;;;0.65;0.63;;;;;;;;;;4945307;28;20046;-88
2023/10/13 18:10:55;;;;;;;0.65;0.50;;;;;;;;;;4961152;28;20042;-88
2023/10/13 18:13:21;;;;;;;0.10;0.10;;;;;;;;;;4961658;28;20511;-88
2023/10/13 18:15:47;;;;;;;0.30;0.30;;;;;;;;;;4945026;28;20050;-88
2023/10/13 18:18:13;;;;;;;0.10;0.10;;;;;;;;;;4977347;28;20045;-88
2023/10/13 18:20:39;;;;;;;0.10;0.10;;;;;;;;;;4961400;28;20549;-88
2023/10/13 18:23:10;;;;;;;0.10;0.10;;;;;;;;;;4961001;28;20133;-88
2023/10/13 18:25:36;;;;;;;0.10;0.10;;;;;;;;;;4976821;28;20049;-88
2023/10/13 18:28:03;;;;;;;0.10;0.10;;;;;;;;;;4960909;28;20046;-88
2023/10/13 18:30:31;;;;;;;0.20;0.20;;;;;;;;;;4976899;28;20050;-88